createdAt,value
2023-03-21T00:01:31.868Z,96.41
2023-03-21T00:04:13.780Z,96.30
2023-03-21T00:07:04.644Z,96.30
2023-03-21T00:09:38.445Z,96.49
2023-03-21T00:12:11.728Z,96.43
2023-03-21T00:14:43.499Z,96.24
2023-03-21T00:17:25.623Z,96.43
2023-03-21T00:19:57.519Z,96.22
2023-03-21T00:22:48.253Z,95.98
2023-03-21T00:25:19.294Z,95.95
2023-03-21T00:28:07.161Z,96.09
2023-03-21T00:30:41.332Z,96.12
2023-03-21T00:33:22.251Z,96.22
2023-03-21T00:36:05.256Z,95.86
2023-03-21T00:38:38.196Z,95.82
2023-03-21T00:41:26.335Z,95.76
2023-03-21T00:44:15.671Z,95.44
2023-03-21T00:47:07.522Z,95.42
2023-03-21T00:49:38.728Z,95.22
2023-03-21T00:52:22.175Z,95.30
2023-03-21T00:55:01.596Z,95.17
2023-03-21T00:58:01.218Z,95.13
2023-03-21T01:00:52.853Z,95.04
2023-03-21T01:03:29.021Z,94.69
2023-03-21T01:06:05.654Z,94.55
2023-03-21T01:08:54.782Z,94.62
2023-03-21T01:11:29.537Z,94.61
2023-03-21T01:14:14.714Z,94.37
2023-03-21T01:16:50.322Z,94.15
2023-03-21T01:19:37.921Z,94.17
2023-03-21T01:22:31.970Z,93.83
2023-03-21T01:25:12.371Z,93.90
2023-03-21T01:27:55.903Z,93.64
2023-03-21T01:30:42.000Z,93.59
2023-03-21T01:33:12.819Z,93.80
2023-03-21T01:35:53.339Z,93.74
2023-03-21T01:38:31.195Z,93.95
2023-03-21T01:41:17.097Z,93.75
2023-03-21T01:43:53.305Z,93.83
2023-03-21T01:46:49.608Z,93.94
2023-03-21T01:49:46.732Z,93.96
2023-03-21T01:52:42.006Z,93.97
2023-03-21T01:55:40.114Z,93.94
2023-03-21T01:58:34.237Z,94.04
2023-03-21T02:01:10.705Z,94.05
2023-03-21T02:03:52.051Z,94.18
2023-03-21T02:06:47.883Z,94.50
2023-03-21T02:09:31.854Z,94.48
2023-03-21T02:12:03.090Z,94.47
2023-03-21T02:14:37.522Z,94.76
2023-03-21T02:17:27.172Z,95.10
2023-03-21T02:20:30.044Z,95.19
2023-03-21T02:23:34.710Z,95.02
2023-03-21T02:26:41.877Z,95.04
2023-03-21T02:29:24.584Z,94.98
2023-03-21T02:32:18.197Z,95.24
2023-03-21T02:35:17.100Z,95.32
2023-03-21T02:38:00.553Z,95.35
2023-03-21T02:40:38.222Z,95.26
2023-03-21T02:43:37.420Z,95.37
2023-03-21T02:46:42.950Z,95.20
2023-03-21T02:49:23.535Z,95.26
2023-03-21T02:52:13.594Z,95.11
2023-03-21T02:54:51.586Z,94.81
2023-03-21T02:57:40.120Z,94.78
2023-03-21T03:00:37.181Z,94.63
2023-03-21T03:03:18.010Z,94.70
2023-03-21T03:06:20.846Z,94.51
2023-03-21T03:09:21.325Z,94.43
2023-03-21T03:11:57.770Z,94.20
2023-03-21T03:15:03.208Z,93.92
2023-03-21T03:17:49.947Z,94.14
2023-03-21T03:20:34.082Z,93.92
2023-03-21T03:23:19.143Z,93.77
2023-03-21T03:25:57.697Z,93.94
2023-03-21T03:28:40.293Z,94.24
2023-03-21T03:31:26.041Z,94.28
2023-03-21T03:34:07.125Z,94.39
2023-03-21T03:36:56.452Z,94.60
2023-03-21T03:39:53.130Z,94.71
2023-03-21T03:42:29.925Z,95.13
2023-03-21T03:45:06.982Z,95.08
2023-03-21T03:47:56.052Z,95.29
2023-03-21T03:50:41.389Z,94.95
2023-03-21T03:53:22.298Z,95.14
2023-03-21T03:55:57.371Z,95.06
2023-03-21T03:58:48.199Z,94.99
2023-03-21T04:01:23.323Z,95.23
2023-03-21T04:04:03.729Z,95.16
2023-03-21T04:07:03.539Z,95.36
2023-03-21T04:09:44.043Z,95.57
2023-03-21T04:12:20.760Z,95.18
2023-03-21T04:15:19.141Z,95.38
2023-03-21T04:18:03.158Z,95.33
2023-03-21T04:20:43.350Z,95.04
2023-03-21T04:23:14.490Z,95.00
2023-03-21T04:25:59.282Z,94.93
2023-03-21T04:28:37.339Z,94.89
2023-03-21T04:31:31.094Z,94.82
2023-03-21T04:34:10.141Z,94.69
2023-03-21T04:36:45.913Z,94.80
2023-03-21T04:39:19.100Z,94.71
2023-03-21T04:41:51.494Z,94.39
2023-03-21T04:44:42.738Z,94.44
2023-03-21T04:47:17.000Z,94.44
2023-03-21T04:49:49.051Z,94.19
2023-03-21T04:52:20.199Z,94.20
2023-03-21T04:55:05.057Z,94.25
2023-03-21T04:57:39.399Z,94.23
2023-03-21T05:00:15.126Z,94.10
2023-03-21T05:02:46.212Z,94.34
2023-03-21T05:05:16.855Z,94.45
2023-03-21T05:07:48.733Z,94.50
2023-03-21T05:10:29.395Z,94.67
2023-03-21T05:13:20.886Z,94.80
2023-03-21T05:15:52.573Z,94.89
2023-03-21T05:18:38.891Z,94.93
2023-03-21T05:21:18.193Z,95.05
2023-03-21T05:24:14.068Z,95.36
2023-03-21T05:26:50.331Z,95.71
2023-03-21T05:29:41.338Z,95.51
2023-03-21T05:32:32.489Z,95.90
2023-03-21T05:35:24.849Z,95.84
2023-03-21T05:38:01.014Z,95.91
2023-03-21T05:40:50.946Z,95.93
2023-03-21T05:43:21.815Z,95.61
2023-03-21T05:46:12.956Z,95.52
2023-03-21T05:48:53.119Z,95.71
2023-03-21T05:51:36.387Z,95.83
2023-03-21T05:54:09.415Z,95.78
2023-03-21T05:56:40.699Z,95.89
2023-03-21T05:59:31.493Z,95.64
2023-03-21T06:02:02.374Z,95.56
2023-03-21T06:04:35.472Z,95.61
2023-03-21T06:07:06.705Z,95.41
2023-03-21T06:09:42.033Z,95.63
2023-03-21T06:12:21.650Z,95.45
2023-03-21T06:15:09.918Z,95.43
2023-03-21T06:18:03.467Z,95.42
2023-03-21T06:20:34.203Z,95.86
2023-03-21T06:23:10.701Z,95.78
2023-03-21T06:25:55.077Z,95.89
2023-03-21T06:28:39.128Z,96.00
2023-03-21T06:31:12.408Z,95.89
2023-03-21T06:33:59.806Z,95.77
2023-03-21T06:36:44.642Z,95.68
2023-03-21T06:39:16.980Z,95.31
2023-03-21T06:41:58.796Z,94.85
2023-03-21T06:44:42.203Z,94.79
2023-03-21T06:47:17.508Z,93.97
2023-03-21T06:50:11.812Z,91.80
2023-03-21T06:52:48.173Z,91.36
2023-03-21T06:55:28.805Z,90.49
2023-03-21T06:58:10.618Z,90.92
2023-03-21T07:00:52.921Z,90.69
2023-03-21T07:03:24.698Z,90.05
2023-03-21T07:06:14.761Z,89.70
2023-03-21T07:08:48.075Z,88.16
2023-03-21T07:11:19.516Z,87.63
2023-03-21T07:14:04.424Z,87.03
2023-03-21T07:16:37.792Z,86.44
2023-03-21T07:19:25.314Z,85.29
2023-03-21T07:22:04.963Z,83.70
2023-03-21T07:25:04.094Z,81.59
2023-03-21T07:27:40.312Z,80.91
2023-03-21T07:30:16.574Z,79.99
2023-03-21T07:33:08.221Z,79.37
2023-03-21T07:35:43.175Z,78.49
2023-03-21T07:38:25.452Z,74.60
2023-03-21T07:41:04.586Z,72.68
2023-03-21T07:43:39.248Z,71.02
2023-03-21T07:46:13.643Z,68.74
2023-03-21T07:48:46.586Z,67.65
2023-03-21T07:51:17.847Z,67.47
2023-03-21T07:54:08.976Z,66.19
2023-03-21T07:56:39.710Z,66.78
2023-03-21T07:59:10.503Z,66.86
2023-03-21T08:01:41.439Z,67.91
2023-03-21T08:04:23.770Z,67.33
2023-03-21T08:06:57.505Z,66.49
2023-03-21T08:10:18.210Z,66.49
2023-03-21T08:12:50.592Z,66.73
2023-03-21T08:15:22.601Z,67.58
2023-03-21T08:17:56.243Z,66.14
2023-03-21T08:20:25.502Z,66.49
2023-03-21T08:22:56.383Z,66.10
2023-03-21T08:25:27.002Z,64.28
2023-03-21T08:27:57.758Z,63.07
2023-03-21T08:30:31.079Z,63.06
2023-03-21T08:33:22.877Z,61.01
2023-03-21T08:35:56.869Z,59.56
2023-03-21T08:38:33.593Z,59.15
2023-03-21T08:41:05.201Z,59.18
2023-03-21T08:43:36.090Z,59.09
2023-03-21T08:46:07.359Z,58.53
2023-03-21T08:48:52.587Z,58.31
2023-03-21T08:51:26.401Z,56.47
2023-03-21T08:53:57.733Z,57.08
2023-03-21T08:56:28.735Z,57.22
2023-03-21T08:59:04.611Z,57.25
2023-03-21T09:01:35.967Z,57.51
2023-03-21T09:04:10.880Z,57.85
2023-03-21T09:06:45.627Z,59.04
2023-03-21T09:09:19.738Z,58.90
2023-03-21T09:11:50.114Z,57.31
2023-03-21T09:14:28.764Z,58.09
2023-03-21T09:17:11.818Z,58.86
2023-03-21T09:19:41.002Z,57.63
2023-03-21T09:22:14.502Z,57.73
2023-03-21T09:24:49.291Z,58.52
2023-03-21T09:27:23.264Z,59.20
2023-03-21T09:29:58.658Z,59.05
2023-03-21T09:32:29.851Z,58.67
2023-03-21T09:35:01.340Z,58.99
2023-03-21T09:37:33.308Z,58.43
2023-03-21T09:40:09.237Z,58.54
2023-03-21T09:42:48.180Z,58.62
2023-03-21T09:45:27.201Z,59.56
2023-03-21T09:47:58.576Z,59.64
2023-03-21T09:50:35.065Z,58.93
2023-03-21T09:53:14.015Z,58.50
2023-03-21T09:55:45.663Z,58.77
2023-03-21T09:58:28.403Z,60.45
2023-03-21T10:01:10.506Z,60.32
2023-03-21T10:03:44.336Z,61.03
2023-03-21T10:06:20.385Z,60.50
2023-03-21T10:08:57.188Z,60.70
2023-03-21T10:11:41.401Z,60.17
2023-03-21T10:14:19.775Z,60.39
2023-03-21T10:16:53.582Z,59.84
2023-03-21T10:19:30.429Z,60.57
2023-03-21T10:22:04.650Z,59.99
2023-03-21T10:24:40.305Z,60.20
2023-03-21T10:27:16.054Z,59.79
2023-03-21T10:29:53.300Z,59.33
2023-03-21T10:32:24.456Z,59.00
2023-03-21T10:34:59.318Z,58.81
2023-03-21T10:37:42.678Z,58.51
2023-03-21T10:40:17.763Z,59.43
2023-03-21T10:42:48.450Z,59.05
2023-03-21T10:45:22.771Z,58.57
2023-03-21T10:47:55.807Z,57.92
2023-03-21T10:50:32.652Z,58.58
2023-03-21T10:53:04.061Z,57.77
2023-03-21T10:56:39.733Z,58.12
2023-03-21T10:59:44.361Z,57.68
2023-03-21T11:02:25.241Z,57.14
2023-03-21T11:04:58.368Z,57.10
2023-03-21T11:07:32.980Z,58.00
2023-03-21T11:10:23.022Z,58.25
2023-03-21T11:13:03.420Z,58.26
2023-03-21T11:15:48.201Z,58.83
2023-03-21T11:18:24.230Z,59.88
2023-03-21T11:20:58.187Z,61.62
2023-03-21T11:23:34.639Z,60.46
2023-03-21T11:26:10.501Z,60.94
2023-03-21T11:28:45.192Z,59.45
2023-03-21T11:31:18.119Z,59.59
2023-03-21T11:33:53.774Z,58.54
2023-03-21T11:36:39.868Z,58.82
2023-03-21T11:39:35.481Z,59.42
2023-03-21T11:42:07.573Z,59.73
2023-03-21T11:44:45.737Z,59.39
2023-03-21T11:47:32.728Z,59.57
2023-03-21T11:50:07.556Z,59.62
2023-03-21T11:52:49.312Z,60.63
2023-03-21T11:55:41.766Z,61.24
2023-03-21T11:58:30.816Z,58.94
2023-03-21T12:01:11.839Z,59.90
2023-03-21T12:04:04.597Z,59.70
2023-03-21T12:06:39.454Z,59.91
2023-03-21T12:09:28.449Z,59.13
2023-03-21T12:12:22.034Z,60.05
2023-03-21T12:15:12.146Z,61.17
2023-03-21T12:17:57.911Z,59.17
2023-03-21T12:20:48.617Z,59.17
2023-03-21T12:23:39.322Z,58.78
2023-03-21T12:26:21.177Z,59.25
2023-03-21T12:29:14.690Z,58.79
2023-03-21T12:31:59.759Z,58.36
2023-03-21T12:34:52.748Z,57.13
2023-03-21T12:37:32.156Z,55.41
2023-03-21T12:40:11.551Z,56.28
2023-03-21T12:43:03.825Z,55.41
2023-03-21T12:45:46.999Z,53.88
2023-03-21T12:48:24.709Z,53.04
2023-03-21T12:51:42.663Z,53.43
2023-03-21T12:55:04.304Z,53.06
2023-03-21T12:57:57.891Z,52.34
2023-03-21T13:01:20.255Z,52.71
2023-03-21T13:04:19.001Z,52.70
2023-03-21T13:07:14.853Z,52.63
2023-03-21T13:11:18.881Z,52.22
2023-03-21T13:14:02.158Z,50.73
2023-03-21T13:16:41.750Z,51.23
2023-03-21T13:19:25.750Z,50.39
2023-03-21T13:22:08.233Z,50.40
2023-03-21T13:24:49.935Z,50.56
2023-03-21T13:27:33.321Z,50.48
2023-03-21T13:30:21.141Z,51.09
2023-03-21T13:32:59.031Z,50.67
2023-03-21T13:35:42.791Z,50.56
2023-03-21T13:38:22.788Z,51.05
2023-03-21T13:41:07.634Z,51.72
2023-03-21T13:43:44.786Z,51.80
2023-03-21T13:46:53.973Z,51.71
2023-03-21T13:53:55.467Z,52.38
2023-03-21T14:00:21.548Z,53.46
2023-03-21T14:03:17.720Z,54.36
2023-03-21T14:05:56.992Z,54.87
2023-03-21T14:08:38.018Z,55.25
2023-03-21T14:11:23.930Z,57.01
2023-03-21T14:14:07.649Z,57.26
2023-03-21T14:19:43.498Z,58.98
2023-03-21T14:22:15.968Z,60.76
2023-03-21T14:24:59.049Z,61.87
2023-03-21T14:27:34.847Z,62.67
2023-03-21T14:30:06.907Z,63.88
2023-03-21T14:32:43.966Z,65.25
2023-03-21T14:35:17.359Z,66.25
2023-03-21T14:38:01.067Z,67.21
2023-03-21T14:40:32.056Z,70.27
2023-03-21T14:43:25.028Z,73.65
2023-03-21T14:45:57.925Z,75.12
2023-03-21T14:48:34.102Z,77.03
2023-03-21T14:51:09.471Z,79.08
2023-03-21T14:53:45.336Z,80.64
2023-03-21T14:56:23.563Z,82.19
2023-03-21T14:58:57.412Z,83.52
2023-03-21T15:01:33.291Z,84.58
2023-03-21T15:04:07.957Z,87.01
2023-03-21T15:06:56.670Z,88.84
2023-03-21T15:09:33.603Z,91.90
2023-03-21T15:12:12.692Z,93.66
2023-03-21T15:14:54.895Z,96.11
2023-03-21T15:17:29.766Z,97.90
2023-03-21T15:20:00.638Z,99.12
2023-03-21T15:22:43.613Z,99.22
2023-03-21T15:25:23.383Z,98.54
2023-03-21T15:27:55.773Z,97.43
2023-03-21T15:30:53.465Z,96.75
2023-03-21T15:33:27.251Z,96.11
2023-03-21T15:36:00.340Z,95.09
2023-03-21T15:38:35.151Z,95.14
2023-03-21T15:41:34.543Z,94.87
2023-03-21T15:44:30.884Z,93.93
2023-03-21T15:50:29.652Z,95.40
2023-03-21T15:53:07.122Z,96.16
2023-03-21T15:55:48.357Z,97.00
2023-03-21T15:58:22.217Z,97.55
2023-03-21T16:00:55.811Z,98.23
2023-03-21T16:03:37.226Z,98.67
2023-03-21T16:06:17.805Z,99.23
2023-03-21T16:08:53.034Z,99.34
2023-03-21T16:11:29.914Z,99.16
2023-03-21T16:14:00.832Z,99.25
2023-03-21T16:16:33.252Z,99.50
2023-03-21T16:19:25.076Z,99.16
2023-03-21T16:21:59.509Z,98.67
2023-03-21T16:24:28.951Z,98.04
2023-03-21T16:27:00.644Z,97.57
2023-03-21T16:29:36.566Z,97.07
2023-03-21T16:32:13.922Z,97.02
2023-03-21T16:34:47.714Z,97.27
2023-03-21T16:37:18.912Z,96.98
2023-03-21T16:40:01.590Z,97.52
2023-03-21T16:42:54.420Z,98.23
2023-03-21T16:45:27.364Z,98.04
2023-03-21T16:47:59.075Z,98.59
2023-03-21T16:50:44.293Z,98.82
2023-03-21T16:53:17.497Z,99.07
2023-03-21T16:55:48.874Z,98.94
2023-03-21T16:58:19.677Z,98.73
2023-03-21T17:01:02.315Z,98.72
2023-03-21T17:03:34.433Z,99.76
2023-03-21T17:06:06.123Z,99.92
2023-03-21T17:08:37.042Z,100.00
2023-03-21T17:11:20.268Z,100.00
2023-03-21T17:14:01.162Z,100.00
2023-03-21T17:16:43.404Z,100.00
2023-03-21T17:19:34.505Z,100.00
2023-03-21T17:22:05.319Z,100.00
2023-03-21T17:24:46.195Z,99.91
2023-03-21T17:27:27.144Z,99.84
2023-03-21T17:29:58.998Z,99.82
2023-03-21T17:32:43.818Z,99.20
2023-03-21T17:35:17.939Z,99.28
2023-03-21T17:37:51.236Z,98.86
2023-03-21T17:40:42.304Z,98.71
2023-03-21T17:43:19.008Z,98.46
2023-03-21T17:46:00.410Z,97.81
2023-03-21T17:48:34.324Z,97.76
2023-03-21T17:51:12.961Z,97.87
2023-03-21T17:53:53.255Z,98.01
2023-03-21T17:56:26.982Z,98.36
2023-03-21T17:59:02.538Z,98.46
2023-03-21T18:01:43.954Z,98.63
2023-03-21T18:04:24.998Z,98.78
2023-03-21T18:07:01.101Z,99.16
2023-03-21T18:09:33.241Z,99.08
2023-03-21T18:12:13.004Z,99.40
2023-03-21T18:14:45.698Z,99.43
2023-03-21T18:17:28.047Z,99.39
2023-03-21T18:20:13.301Z,99.27
2023-03-21T18:22:44.340Z,98.58
2023-03-21T18:25:17.188Z,98.54
2023-03-21T18:28:09.594Z,98.73
2023-03-21T18:31:00.395Z,98.30
2023-03-21T18:33:50.226Z,98.22
2023-03-21T18:36:25.624Z,98.45
2023-03-21T18:38:58.853Z,97.83
2023-03-21T18:41:50.234Z,97.36
2023-03-21T18:44:24.270Z,97.57
2023-03-21T18:46:56.167Z,97.80
2023-03-21T18:52:28.707Z,97.70
2023-03-21T18:55:05.278Z,97.02
2023-03-21T18:57:38.495Z,96.57
2023-03-21T19:00:22.122Z,96.20
2023-03-21T19:03:18.893Z,96.29
2023-03-21T19:06:14.218Z,95.41
2023-03-21T19:08:46.414Z,94.99
2023-03-21T19:11:26.110Z,95.00
2023-03-21T19:13:55.969Z,94.98
2023-03-21T19:16:31.086Z,95.44
2023-03-21T19:19:19.454Z,95.27
2023-03-21T19:21:54.752Z,94.31
2023-03-21T19:24:32.876Z,94.84
2023-03-21T19:27:13.291Z,93.90
2023-03-21T19:30:14.432Z,94.11
2023-03-21T19:32:49.909Z,93.66
2023-03-21T19:35:32.164Z,93.82
2023-03-21T19:38:05.265Z,93.63
2023-03-21T19:40:36.772Z,93.55
2023-03-21T19:43:32.411Z,93.95
2023-03-21T19:46:04.097Z,93.68
2023-03-21T19:48:38.144Z,93.74
2023-03-21T19:51:27.771Z,93.52
2023-03-21T19:54:00.065Z,93.60
2023-03-21T19:56:31.920Z,93.37
2023-03-21T19:59:13.300Z,92.65
2023-03-21T20:01:44.085Z,92.36
2023-03-21T20:04:17.919Z,92.86
2023-03-21T20:06:54.450Z,92.56
2023-03-21T20:09:50.734Z,93.02
2023-03-21T20:12:30.873Z,92.61
2023-03-21T20:15:16.409Z,93.07
2023-03-21T20:17:49.303Z,92.57
2023-03-21T20:20:30.420Z,92.70
2023-03-21T20:23:07.866Z,92.92
2023-03-21T20:25:45.063Z,92.77
2023-03-21T20:28:25.527Z,93.42
2023-03-21T20:31:00.764Z,93.25
2023-03-21T20:33:32.819Z,93.68
2023-03-21T20:36:37.785Z,93.36
2023-03-21T20:38:58.344Z,93.59
2023-03-21T20:41:30.571Z,93.71
2023-03-21T20:47:00.121Z,93.44
2023-03-21T20:49:35.163Z,93.26
2023-03-21T20:55:09.327Z,93.18
2023-03-21T20:57:40.789Z,92.30
2023-03-21T21:00:22.483Z,91.60
2023-03-21T21:02:53.323Z,91.18
2023-03-21T21:05:30.564Z,90.14
2023-03-21T21:08:06.292Z,90.04
2023-03-21T21:11:02.737Z,89.37
2023-03-21T21:13:31.781Z,88.78
2023-03-21T21:16:07.039Z,87.77
2023-03-21T21:18:58.073Z,87.52
2023-03-21T21:21:33.236Z,86.67
2023-03-21T21:24:07.412Z,86.66
2023-03-21T21:26:49.911Z,86.11
2023-03-21T21:29:31.673Z,86.00
2023-03-21T21:32:12.617Z,86.00
2023-03-21T21:34:47.974Z,85.80
2023-03-21T21:37:22.658Z,85.86
2023-03-21T21:39:59.025Z,85.61
2023-03-21T21:42:50.312Z,86.06
2023-03-21T21:45:26.560Z,86.17
2023-03-21T21:48:00.264Z,86.63
2023-03-21T21:50:31.266Z,86.95
2023-03-21T21:53:07.328Z,87.27
2023-03-21T21:55:38.918Z,88.34
2023-03-21T21:58:14.470Z,88.66
2023-03-21T22:00:45.918Z,89.19
2023-03-21T22:03:25.866Z,90.18
2023-03-21T22:06:04.703Z,90.46
2023-03-21T22:08:47.936Z,90.77
2023-03-21T22:11:19.607Z,91.12
2023-03-21T22:13:52.588Z,91.59
2023-03-21T22:16:34.482Z,91.58
2023-03-21T22:19:05.328Z,92.31
2023-03-21T22:21:46.161Z,92.48
2023-03-21T22:24:17.178Z,92.33
2023-03-21T22:27:02.026Z,92.74
2023-03-21T22:29:32.760Z,92.89
2023-03-21T22:32:03.438Z,93.21
2023-03-21T22:34:34.119Z,93.24
2023-03-21T22:37:04.912Z,93.34
2023-03-21T22:39:46.695Z,93.41
2023-03-21T22:42:29.230Z,93.84
2023-03-21T22:44:58.353Z,93.83
2023-03-21T22:47:40.010Z,93.78
2023-03-21T22:50:31.141Z,93.18
2023-03-21T22:53:22.046Z,93.47
2023-03-21T22:55:53.205Z,93.22
2023-03-21T22:58:32.021Z,93.34
2023-03-21T23:01:05.932Z,93.28
2023-03-21T23:03:37.104Z,93.64
2023-03-21T23:06:10.938Z,93.65
2023-03-21T23:08:43.854Z,93.99
2023-03-21T23:11:34.801Z,93.71
2023-03-21T23:14:15.310Z,93.92
2023-03-21T23:16:45.965Z,93.59
2023-03-21T23:19:25.471Z,93.11
2023-03-21T23:22:16.264Z,93.13
2023-03-21T23:24:55.868Z,92.92
2023-03-21T23:27:39.699Z,93.01
2023-03-21T23:30:11.683Z,93.09
2023-03-21T23:33:02.453Z,93.35
2023-03-21T23:35:38.349Z,93.30
2023-03-21T23:38:29.231Z,93.33
2023-03-21T23:41:02.981Z,93.14
2023-03-21T23:43:34.977Z,93.50
2023-03-21T23:46:06.706Z,93.57
2023-03-21T23:48:37.597Z,93.40
2023-03-21T23:51:12.950Z,93.61
2023-03-21T23:54:03.985Z,93.88
2023-03-21T23:56:54.875Z,94.14
2023-03-21T23:59:34.300Z,93.70
